Time;durP1;ratioP1;P1;durP2;ratioP2;P2;SDS_P1;SDS_P2;PMS_P1;PMS_P2;Temp;Humidity;BMP_temperature;BMP_pressure;BME280_temperature;BME280_humidity;BME280_pressure;Samples;Min_cycle;Max_cycle;Signal;HPM_P1;HPM_P2
2023/01/06 00:00:25;;;;;;;5.97;1.73;;;11.70;99.90;;;10.85;100.00;101905.88;4189786;28;20028;-72
2023/01/06 00:02:26;;;;;;;5.43;1.35;;;11.70;99.90;;;10.83;100.00;101905.19;4184713;28;20068;-74
2023/01/06 00:04:27;;;;;;;8.65;2.38;;;11.70;99.90;;;10.89;100.00;101904.69;4190996;28;20032;-74
2023/01/06 00:06:29;;;;;;;5.20;1.10;;;11.70;99.90;;;10.82;100.00;101900.88;4186543;28;20484;-74
2023/01/06 00:08:30;;;;;;;4.53;0.95;;;11.70;99.90;;;10.86;100.00;101910.22;4185280;28;20048;-74
2023/01/06 00:10:31;;;;;;;2.90;1.08;;;11.70;99.90;;;10.79;100.00;101900.28;4185142;28;20033;-75
2023/01/06 00:12:32;;;;;;;3.50;1.30;;;11.60;99.90;;;10.75;100.00;101904.97;4220303;28;20032;-74
2023/01/06 00:14:33;;;;;;;4.90;1.23;;;11.60;99.90;;;10.78;100.00;101906.56;4185741;28;20040;-74
2023/01/06 00:16:35;;;;;;;3.10;1.48;;;11.60;99.90;;;10.77;100.00;101903.06;4185060;28;20029;-74
2023/01/06 00:18:37;;;;;;;3.28;1.25;;;11.60;99.90;;;10.71;100.00;101903.59;4185041;28;20025;-74
2023/01/06 00:20:38;;;;;;;4.10;1.00;;;11.60;99.90;;;10.63;100.00;101899.91;4185210;28;20040;-74
2023/01/06 00:22:41;;;;;;;4.18;1.15;;;11.50;99.90;;;10.58;100.00;101897.63;4185161;28;20029;-74
2023/01/06 00:24:42;;;;;;;5.47;1.10;;;11.40;99.90;;;10.49;100.00;101901.88;4184930;28;20025;-74
2023/01/06 00:26:43;;;;;;;6.90;1.55;;;11.30;99.90;;;10.51;100.00;101893.84;4184693;28;20097;-74
2023/01/06 00:28:44;;;;;;;6.00;1.67;;;11.40;99.90;;;10.57;100.00;101910.97;4185189;28;20025;-74
2023/01/06 00:30:44;;;;;;;6.63;1.85;;;11.30;99.90;;;10.59;100.00;101891.41;4218322;28;20070;-74
2023/01/06 00:32:45;;;;;;;4.88;1.50;;;11.40;99.90;;;10.62;100.00;101893.78;4186038;28;20090;-74
2023/01/06 00:34:46;;;;;;;5.00;1.63;;;11.50;99.90;;;10.62;100.00;101898.22;4196621;28;20028;-74
2023/01/06 00:36:47;;;;;;;7.97;1.67;;;11.50;99.90;;;10.67;100.00;101896.88;4185140;28;20029;-74
2023/01/06 00:38:49;;;;;;;4.70;1.23;;;11.50;99.90;;;10.73;100.00;101895.53;4185994;28;20109;-74
2023/01/06 00:40:50;;;;;;;5.82;1.30;;;11.50;99.90;;;10.70;100.00;101893.97;4172065;28;20095;-74
2023/01/06 00:42:51;;;;;;;7.50;2.33;;;11.50;99.90;;;10.77;100.00;101900.44;4184670;28;20028;-74
2023/01/06 00:44:52;;;;;;;5.20;1.38;;;11.50;99.90;;;10.73;100.00;101893.72;4193895;28;20508;-74
2023/01/06 00:46:53;;;;;;;4.45;1.30;;;11.50;99.90;;;10.74;100.00;101892.75;4184103;28;20059;-74
2023/01/06 00:48:57;;;;;;;4.57;2.25;;;11.60;99.90;;;10.74;100.00;101899.84;4184534;28;20032;-75
2023/01/06 00:51:01;;;;;;;2.67;1.00;;;11.50;99.90;;;10.69;100.00;101894.13;4187609;28;20039;-75
2023/01/06 00:53:02;;;;;;;3.83;1.30;;;11.50;99.90;;;10.64;100.00;101886.56;4218025;28;20044;-74
2023/01/06 00:55:04;;;;;;;6.93;2.03;;;11.50;99.90;;;10.69;100.00;101892.31;4184319;28;20045;-74
2023/01/06 00:57:06;;;;;;;4.72;1.60;;;11.50;99.90;;;10.69;100.00;101883.56;4230558;28;20045;-74
2023/01/06 00:59:08;;;;;;;5.25;1.48;;;11.60;99.90;;;10.71;100.00;101887.75;4217707;28;20097;-74
2023/01/06 01:01:10;;;;;;;4.47;2.45;;;11.60;99.90;;;10.72;100.00;101897.31;4219029;28;20032;-74
2023/01/06 01:03:10;;;;;;;6.20;1.42;;;11.60;99.90;;;10.73;100.00;101895.53;4218920;28;20032;-74
2023/01/06 01:05:12;;;;;;;8.73;1.80;;;11.60;99.90;;;10.76;100.00;101901.38;4200803;28;20409;-74
2023/01/06 01:07:13;;;;;;;4.90;1.33;;;11.60;99.90;;;10.79;100.00;101898.50;4218826;28;20104;-74
2023/01/06 01:09:20;;;;;;;13.50;1.67;;;11.60;99.90;;;10.81;100.00;101883.34;4184319;28;20036;-74
2023/01/06 01:13:41;;;;;;;7.90;1.25;;;11.60;99.90;;;10.87;100.00;101882.81;4218692;28;20093;-74
2023/01/06 01:15:43;;;;;;;7.07;1.58;;;11.70;99.90;;;10.90;100.00;101881.75;4218911;28;20032;-74
2023/01/06 01:17:43;;;;;;;6.97;1.80;;;11.70;99.90;;;10.88;100.00;101881.88;4200869;28;20048;-74
2023/01/06 01:19:45;;;;;;;6.72;1.50;;;11.70;99.90;;;10.96;100.00;101881.25;4218736;28;20036;-74
2023/01/06 01:21:47;;;;;;;3.63;1.80;;;11.70;99.90;;;10.88;100.00;101868.69;4200650;28;20025;-74
2023/01/06 01:23:48;;;;;;;7.10;2.15;;;11.70;99.90;;;10.95;100.00;101872.47;4200693;28;20022;-74
2023/01/06 01:25:49;;;;;;;6.93;1.50;;;11.70;99.90;;;10.81;100.00;101871.97;4218695;28;20028;-74
2023/01/06 01:27:50;;;;;;;6.20;1.13;;;11.70;99.90;;;10.77;100.00;101875.84;4183990;28;20103;-74
2023/01/06 01:29:51;;;;;;;5.00;1.23;;;11.70;99.90;;;10.87;100.00;101867.00;4200627;28;20068;-74
2023/01/06 01:31:52;;;;;;;4.68;1.20;;;11.60;99.90;;;10.81;100.00;101871.97;4200739;28;20494;-74
2023/01/06 01:33:53;;;;;;;7.68;1.08;;;11.60;99.90;;;10.77;100.00;101876.69;4219022;28;20024;-74
2023/01/06 01:35:54;;;;;;;7.28;1.63;;;11.60;99.90;;;10.76;100.00;101875.00;4204818;28;20021;-74
2023/01/06 01:37:55;;;;;;;5.47;1.10;;;11.60;99.90;;;10.74;100.00;101874.28;4200657;28;20020;-74
2023/01/06 01:39:56;;;;;;;4.22;1.10;;;11.60;99.90;;;10.74;100.00;101879.56;4218591;28;20069;-74
2023/01/06 01:41:58;;;;;;;4.13;1.35;;;11.60;99.90;;;10.73;100.00;101885.81;4200348;28;20016;-74
2023/01/06 01:44:22;;;;;;;2.55;1.02;;;11.60;99.90;;;10.80;100.00;101881.69;4200489;28;20062;-74
2023/01/06 01:46:34;;;;;;;4.97;1.10;;;11.60;99.90;;;10.82;100.00;101884.19;4174450;28;20029;-74
2023/01/06 01:48:36;;;;;;;4.10;0.75;;;11.60;99.90;;;10.78;100.00;101896.81;4218424;28;20581;-74
2023/01/06 01:50:44;;;;;;;3.08;0.75;;;11.60;99.90;;;10.76;100.00;101890.81;4200668;28;20044;-74
2023/01/06 01:52:49;;;;;;;4.07;0.70;;;11.60;99.90;;;10.73;100.00;101887.59;4174143;28;20076;-74
2023/01/06 01:54:52;;;;;;;2.53;0.50;;;11.60;99.90;;;10.75;100.00;101889.16;4183844;28;20040;-74
2023/01/06 01:57:05;;;;;;;7.47;0.95;;;11.60;99.90;;;10.73;100.00;101891.09;4183665;28;20033;-74
2023/01/06 01:59:12;;;;;;;2.65;0.68;;;11.50;99.90;;;10.78;100.00;101894.16;4186304;28;20055;-74
2023/01/06 02:01:13;;;;;;;4.00;0.60;;;11.50;99.90;;;10.79;100.00;101881.81;4187412;28;20029;-74
2023/01/06 02:03:15;;;;;;;4.10;0.80;;;11.60;99.90;;;10.66;100.00;101884.66;4187346;28;20024;-74
2023/01/06 02:05:21;;;;;;;3.33;1.08;;;11.50;99.90;;;10.72;100.00;101889.41;4186794;28;20029;-74
2023/01/06 02:07:25;;;;;;;4.28;0.90;;;11.50;99.90;;;10.67;100.00;101880.19;4175847;28;20539;-74
2023/01/06 02:10:18;;;;;;;4.10;0.80;;;11.50;99.90;;;10.59;100.00;101878.22;4187240;28;20033;-74
2023/01/06 02:12:19;;;;;;;4.18;0.82;;;11.50;99.90;;;10.54;100.00;101872.50;4184046;28;20490;-74
2023/01/06 02:14:25;;;;;;;4.30;0.93;;;11.40;99.90;;;10.47;100.00;101868.69;4187098;28;20059;-74
2023/01/06 02:16:54;;;;;;;4.50;0.60;;;11.30;99.90;;;10.32;100.00;101875.22;4188269;28;20495;-74
2023/01/06 02:19:09;;;;;;;3.40;0.57;;;11.20;99.90;;;10.23;100.00;101881.25;4188113;28;20036;-74
2023/01/06 02:21:19;;;;;;;3.35;0.60;;;11.10;99.90;;;10.17;100.00;101871.22;4186441;28;20548;-75
2023/01/06 02:23:23;;;;;;;3.45;0.98;;;11.00;99.90;;;10.09;100.00;101871.81;4188105;28;20056;-74
2023/01/06 02:25:26;;;;;;;1.80;0.68;;;10.90;99.90;;;10.02;100.00;101874.13;4188057;28;20025;-74
2023/01/06 02:27:57;;;;;;;2.53;0.35;;;10.80;99.90;;;9.94;100.00;101870.44;4186628;28;20029;-74
2023/01/06 02:30:15;;;;;;;3.67;0.63;;;10.80;99.90;;;9.94;100.00;101871.28;4188184;28;20388;-74
2023/01/06 02:32:46;;;;;;;2.15;0.50;;;10.80;99.90;;;9.89;100.00;101873.44;4186640;28;20033;-74
2023/01/06 02:35:05;;;;;;;4.63;0.90;;;10.70;99.90;;;9.89;100.00;101870.78;4186628;28;20063;-74
2023/01/06 02:37:29;;;;;;;1.48;0.57;;;10.70;99.90;;;9.90;100.00;101874.28;4203376;28;20115;-74
2023/01/06 02:39:45;;;;;;;8.13;1.02;;;10.70;99.90;;;9.98;100.00;101883.22;4187787;28;20021;-74
2023/01/06 02:42:13;;;;;;;1.92;0.40;;;10.80;99.90;;;9.95;100.00;101883.47;4187697;28;20036;-74
2023/01/06 02:44:28;;;;;;;3.13;0.55;;;10.80;99.90;;;9.95;100.00;101887.91;4171307;28;20026;-75
2023/01/06 02:47:18;;;;;;;3.50;0.68;;;10.80;99.90;;;10.01;100.00;101887.41;4187861;28;20063;-74
2023/01/06 02:49:43;;;;;;;2.72;0.50;;;10.90;99.90;;;10.10;100.00;101899.00;4187734;28;20021;-75
2023/01/06 02:52:18;;;;;;;0.90;0.30;;;10.90;99.90;;;10.11;100.00;101893.63;4190999;28;20033;-74
2023/01/06 02:54:36;;;;;;;2.55;1.02;;;10.90;99.90;;;10.14;100.00;101897.84;4191058;28;20021;-74
2023/01/06 02:56:46;;;;;;;2.15;0.60;;;11.00;99.90;;;10.15;100.00;101888.97;4187556;28;20099;-74
2023/01/06 02:58:56;;;;;;;4.18;0.70;;;11.00;99.90;;;10.16;100.00;101888.00;4186443;28;20060;-74
2023/01/06 03:01:14;;;;;;;1.92;0.52;;;11.00;99.90;;;10.18;100.00;101894.00;4188970;28;20108;-74
2023/01/06 03:03:21;;;;;;;3.38;0.60;;;11.00;99.90;;;10.14;100.00;101882.84;4192650;28;20031;-75
2023/01/06 03:05:23;;;;;;;2.47;0.93;;;11.00;99.90;;;10.15;100.00;101879.28;4187362;28;20433;-74
2023/01/06 03:07:27;;;;;;;2.55;0.60;;;11.00;99.90;;;10.19;100.00;101874.56;4186409;28;20020;-74
2023/01/06 03:09:34;;;;;;;4.50;0.50;;;11.00;99.90;;;10.20;100.00;101870.97;4185901;28;20078;-74
2023/01/06 03:11:36;;;;;;;4.72;0.93;;;11.00;99.90;;;10.24;100.00;101872.41;4193598;28;20020;-74
2023/01/06 03:13:51;;;;;;;2.65;0.63;;;11.00;99.90;;;10.24;100.00;101860.06;4187359;28;20088;-74
2023/01/06 03:15:52;;;;;;;2.63;0.55;;;11.10;99.90;;;10.29;100.00;101862.31;4195143;28;20051;-74
2023/01/06 03:17:53;;;;;;;4.68;0.75;;;11.10;99.90;;;10.31;100.00;101869.13;4169492;28;20061;-74
2023/01/06 03:19:54;;;;;;;6.15;0.57;;;11.10;99.90;;;10.30;100.00;101851.63;4200345;28;20538;-74
2023/01/06 03:21:57;;;;;;;1.55;0.63;;;11.20;99.90;;;10.36;100.00;101852.94;4192344;28;20025;-74
2023/01/06 03:23:58;;;;;;;4.10;0.63;;;11.10;99.90;;;10.38;100.00;101843.06;4189481;28;20028;-74
2023/01/06 03:25:58;;;;;;;3.78;0.73;;;11.20;99.90;;;10.45;100.00;101852.16;4192875;28;20025;-74
2023/01/06 03:27:59;;;;;;;4.97;0.57;;;11.20;99.90;;;10.48;100.00;101846.63;4186832;28;20504;-74
2023/01/06 03:30:08;;;;;;;4.53;0.60;;;11.30;99.90;;;10.48;100.00;101841.34;4187265;28;20025;-74
2023/01/06 03:32:31;;;;;;;8.43;1.13;;;11.30;99.90;;;10.49;100.00;101840.38;4190105;28;20061;-74
2023/01/06 03:35:27;;;;;;;3.63;0.50;;;11.30;99.90;;;10.47;100.00;101843.16;4194042;28;20487;-74
2023/01/06 03:37:53;;;;;;;3.00;0.68;;;11.30;99.90;;;10.50;100.00;101834.13;4169219;28;20049;-74
2023/01/06 03:40:03;;;;;;;4.32;0.52;;;11.30;99.90;;;10.50;100.00;101831.50;4175951;28;20060;-74
2023/01/06 03:45:38;;;;;;;4.00;0.70;;;11.30;99.90;;;10.49;100.00;101817.47;4185792;28;20036;-74
2023/01/06 03:48:01;;;;;;;3.20;0.52;;;11.40;99.90;;;10.50;100.00;101818.31;4178492;28;20531;-74
2023/01/06 03:50:31;;;;;;;3.85;0.57;;;11.40;99.90;;;10.52;100.00;101827.75;4186082;28;20021;-74
2023/01/06 03:52:38;;;;;;;3.72;0.60;;;11.40;99.90;;;10.49;100.00;101817.47;4227814;28;20071;-74
2023/01/06 03:54:56;;;;;;;5.80;1.17;;;11.40;99.90;;;10.54;100.00;101817.91;4202291;28;20094;-74
2023/01/06 03:57:33;;;;;;;4.03;0.70;;;11.40;99.90;;;10.56;100.00;101825.72;4202049;28;20471;-74
2023/01/06 03:59:44;;;;;;;3.20;0.57;;;11.40;99.90;;;10.60;100.00;101826.28;4187622;28;20025;-74
2023/01/06 04:01:46;;;;;;;7.10;1.58;;;11.40;99.90;;;10.63;100.00;101821.59;4201881;28;20031;-74
2023/01/06 04:03:50;;;;;;;4.18;1.20;;;11.50;99.90;;;10.62;100.00;101819.06;4201856;28;20404;-74
2023/01/06 04:05:53;;;;;;;6.28;1.10;;;11.50;99.90;;;10.66;100.00;101816.06;4201502;28;20048;-74
2023/01/06 04:07:54;;;;;;;8.45;1.75;;;11.50;99.90;;;10.68;100.00;101815.91;4202072;28;20411;-75
2023/01/06 04:09:55;;;;;;;4.53;1.88;;;11.50;99.90;;;10.66;100.00;101816.06;4218496;28;20100;-74
2023/01/06 04:14:15;;;;;;;13.00;2.08;;;11.50;99.90;;;10.66;100.00;101817.84;4202495;28;20024;-74
2023/01/06 04:16:16;;;;;;;8.27;1.35;;;11.60;99.90;;;10.71;100.00;101816.50;4189664;28;20033;-74
2023/01/06 04:18:16;;;;;;;7.32;1.20;;;11.50;99.90;;;10.67;100.00;101812.44;4202871;28;20016;-74
2023/01/06 04:20:27;;;;;;;11.25;1.33;;;11.60;99.90;;;10.72;100.00;101820.78;4201712;28;20028;-74
2023/01/06 04:22:28;;;;;;;7.57;1.30;;;11.50;99.90;;;10.75;100.00;101817.06;4201667;28;20021;-74
2023/01/06 04:24:29;;;;;;;4.97;1.42;;;11.50;99.90;;;10.71;100.00;101813.84;4201629;28;20029;-74
2023/01/06 04:26:30;;;;;;;6.38;1.75;;;11.60;99.90;;;10.75;100.00;101817.06;4201239;28;20106;-74
2023/01/06 04:28:31;;;;;;;5.72;1.42;;;11.60;99.90;;;10.77;100.00;101815.13;4202846;28;20025;-74
2023/01/06 04:30:32;;;;;;;7.72;1.88;;;11.60;99.90;;;10.76;100.00;101816.09;4201583;28;20112;-74
2023/01/06 04:32:32;;;;;;;3.33;1.65;;;11.60;99.90;;;10.81;100.00;101814.72;4201399;28;20024;-75
2023/01/06 04:34:33;;;;;;;6.07;1.60;;;11.60;99.90;;;10.78;100.00;101820.25;4184727;28;20126;-74
2023/01/06 04:36:34;;;;;;;5.78;1.52;;;11.60;99.90;;;10.79;100.00;101821.94;4189932;28;20054;-74
2023/01/06 04:38:35;;;;;;;9.15;1.63;;;11.60;99.90;;;10.82;100.00;101824.31;4201807;28;20043;-74
2023/01/06 04:40:36;;;;;;;7.95;1.75;;;11.60;99.90;;;10.78;100.00;101812.34;4202587;28;20040;-74
2023/01/06 04:44:56;;;;;;;8.85;1.80;;;11.70;99.90;;;10.73;100.00;101811.91;4202498;28;20128;-74
2023/01/06 04:46:57;;;;;;;14.23;2.00;;;11.60;99.90;;;10.70;100.00;101811.34;4202447;28;20024;-75
2023/01/06 04:48:58;;;;;;;4.60;1.30;;;11.60;99.90;;;10.77;100.00;101823.06;4202378;28;20024;-74
2023/01/06 04:51:08;;;;;;;5.65;1.50;;;11.60;99.90;;;10.66;100.00;101799.38;4202163;28;20031;-75
2023/01/06 04:53:11;;;;;;;6.95;1.77;;;11.60;99.90;;;10.74;100.00;101816.22;4194240;28;20083;-74
2023/01/06 04:55:12;;;;;;;7.13;2.08;;;11.60;99.90;;;10.76;100.00;101816.94;4184609;28;20488;-74
2023/01/06 04:57:13;;;;;;;7.93;1.65;;;11.60;99.90;;;10.77;100.00;101818.63;4195907;28;20028;-74
2023/01/06 04:59:14;;;;;;;9.02;1.35;;;11.60;99.90;;;10.79;100.00;101811.38;4186010;28;20029;-74
2023/01/06 05:01:15;;;;;;;5.13;1.63;;;11.60;99.90;;;10.80;100.00;101820.16;4188314;28;20029;-74
2023/01/06 05:03:15;;;;;;;12.60;3.28;;;11.60;99.90;;;10.79;100.00;101807.91;4184453;28;20021;-74
2023/01/06 05:05:16;;;;;;;8.88;1.33;;;11.60;99.90;;;10.81;100.00;101798.06;4190920;28;20491;-75
2023/01/06 05:07:17;;;;;;;8.25;2.53;;;11.60;99.90;;;10.82;100.00;101805.84;4184421;28;20029;-74
2023/01/06 05:09:18;;;;;;;10.00;2.33;;;11.60;99.90;;;10.82;100.00;101805.00;4185720;28;20099;-75
2023/01/06 05:11:22;;;;;;;9.00;2.45;;;11.70;99.90;;;10.86;100.00;101823.09;4184201;28;20451;-74
2023/01/06 05:13:23;;;;;;;10.32;1.80;;;11.70;99.90;;;10.88;100.00;101815.03;4184283;28;20029;-75
2023/01/06 05:15:24;;;;;;;11.30;1.70;;;11.70;99.90;;;10.86;100.00;101825.75;4188584;28;20495;-74
2023/01/06 05:17:26;;;;;;;11.65;1.35;;;11.70;99.90;;;10.90;100.00;101819.22;4184186;28;20021;-74
2023/01/06 05:19:27;;;;;;;9.80;1.88;;;11.70;99.90;;;10.91;100.00;101820.06;4184331;28;20404;-75
2023/01/06 05:21:29;;;;;;;8.45;1.85;;;11.70;99.90;;;10.89;100.00;101825.47;4185438;28;20025;-75
2023/01/06 05:23:30;;;;;;;14.20;1.75;;;11.70;99.90;;;10.87;100.00;101819.47;4185354;28;20021;-75
2023/01/06 05:25:31;;;;;;;10.48;1.58;;;11.70;99.90;;;10.87;100.00;101824.75;4186146;28;20032;-74
2023/01/06 05:27:32;;;;;;;8.30;2.03;;;11.70;99.90;;;10.91;100.00;101826.19;4183998;28;20025;-74
2023/01/06 05:29:34;;;;;;;9.90;2.03;;;11.70;99.90;;;10.88;100.00;101822.97;4187163;28;20492;-74
2023/01/06 05:31:35;;;;;;;8.20;1.35;;;11.70;99.90;;;10.88;100.00;101822.97;4184349;28;20033;-74
2023/01/06 05:33:36;;;;;;;12.25;1.92;;;11.70;99.90;;;10.87;100.00;101824.75;4183870;28;20098;-74
2023/01/06 05:35:37;;;;;;;9.82;2.13;;;11.70;99.90;;;10.88;100.00;101834.34;4191810;28;20032;-74
2023/01/06 05:37:38;;;;;;;6.50;1.63;;;11.70;99.90;;;10.90;100.00;101826.31;4188128;28;20062;-74
2023/01/06 05:39:39;;;;;;;7.80;1.85;;;11.70;99.90;;;10.86;100.00;101828.38;4183950;28;20029;-74
2023/01/06 05:41:40;;;;;;;8.25;1.50;;;11.70;99.90;;;10.89;100.00;101829.91;4183533;28;20025;-74
2023/01/06 05:43:41;;;;;;;11.25;2.63;;;11.70;99.90;;;10.90;100.00;101835.06;4167478;28;20401;-74
2023/01/06 05:45:41;;;;;;;7.18;1.92;;;11.70;99.90;;;10.83;100.00;101817.25;4169910;28;20036;-74
2023/01/06 05:47:43;;;;;;;13.38;1.90;;;11.70;99.90;;;10.87;100.00;101829.22;4167395;28;20033;-74
2023/01/06 05:49:44;;;;;;;6.43;1.60;;;11.70;99.90;;;10.82;100.00;101829.59;4168742;28;20544;-74
2023/01/06 05:51:44;;;;;;;12.88;2.08;;;11.70;99.90;;;10.84;100.00;101832.94;4181609;28;20044;-74
2023/01/06 05:53:48;;;;;;;8.15;2.42;;;11.70;99.90;;;10.86;100.00;101827.53;4184051;28;20045;-74
2023/01/06 05:55:48;;;;;;;10.80;1.42;;;11.70;99.90;;;10.89;100.00;101830.75;4201507;28;20037;-75
2023/01/06 05:57:49;;;;;;;7.50;1.70;;;11.70;99.90;;;10.87;100.00;101827.41;4167024;28;20076;-74
2023/01/06 05:59:50;;;;;;;10.52;1.83;;;11.70;99.90;;;10.89;100.00;101833.41;4201778;28;20060;-74
2023/01/06 06:01:51;;;;;;;7.95;2.70;;;11.70;99.90;;;10.90;100.00;101828.97;4183681;28;20412;-74
2023/01/06 06:03:53;;;;;;;6.00;1.60;;;11.70;99.90;;;10.93;100.00;101834.78;4183687;28;20029;-74
2023/01/06 06:05:54;;;;;;;3.85;1.67;;;11.80;99.90;;;10.94;100.00;101828.56;4201497;28;20556;-75
2023/01/06 06:07:55;;;;;;;6.70;1.73;;;11.80;99.90;;;10.98;100.00;101824.69;4201649;28;20028;-74
2023/01/06 06:09:56;;;;;;;8.13;1.73;;;11.80;99.90;;;11.02;100.00;101830.56;4183783;28;20021;-74
2023/01/06 06:11:57;;;;;;;8.48;1.83;;;11.80;99.90;;;10.99;100.00;101818.41;4183423;28;20033;-74
2023/01/06 06:13:58;;;;;;;12.23;2.25;;;11.80;99.90;;;10.99;100.00;101826.34;4201583;28;20032;-74
2023/01/06 06:16:08;;;;;;;7.32;2.22;;;11.80;99.90;;;10.99;100.00;101818.41;4185285;28;20025;-74
2023/01/06 06:18:09;;;;;;;6.32;1.42;;;11.80;99.90;;;10.99;100.00;101822.91;4187442;28;20051;-74
2023/01/06 06:20:10;;;;;;;11.23;2.58;;;11.90;99.90;;;11.01;100.00;101815.66;4183555;28;20032;-74
2023/01/06 06:22:11;;;;;;;7.15;2.85;;;11.80;99.90;;;11.00;100.00;101825.38;4183550;28;20508;-74
2023/01/06 06:24:12;;;;;;;4.97;1.50;;;11.80;99.90;;;10.98;100.00;101819.41;4201519;28;20035;-74
2023/01/06 06:26:13;;;;;;;6.63;1.60;;;11.90;99.90;;;10.99;100.00;101823.69;4183376;28;20021;-74
2023/01/06 06:28:14;;;;;;;8.18;1.55;;;11.80;99.90;;;11.01;100.00;101820.94;4201353;28;20435;-74
2023/01/06 06:30:16;;;;;;;8.68;1.80;;;11.80;99.90;;;10.97;100.00;101816.88;4201468;28;20028;-74
2023/01/06 06:32:17;;;;;;;11.52;2.92;;;11.80;99.90;;;10.99;100.00;101818.41;4167025;28;20036;-74
2023/01/06 06:34:18;;;;;;;6.00;1.92;;;11.80;99.90;;;10.97;100.00;101823.00;4183626;28;20029;-74
2023/01/06 06:36:19;;;;;;;9.70;2.10;;;11.80;99.90;;;11.00;100.00;101824.53;4201222;28;20074;-74
2023/01/06 06:38:20;;;;;;;7.57;1.63;;;11.80;99.90;;;11.02;100.00;101826.09;4183702;28;20025;-74
2023/01/06 06:40:21;;;;;;;9.07;1.58;;;11.80;99.90;;;10.96;100.00;101823.16;4183411;28;20025;-74
2023/01/06 06:42:22;;;;;;;7.55;1.50;;;11.80;99.90;;;10.96;100.00;101823.97;4190146;28;20027;-74
2023/01/06 06:44:23;;;;;;;9.77;1.92;;;11.80;99.90;;;10.95;100.00;101832.88;4185135;28;20499;-75
2023/01/06 06:46:24;;;;;;;7.18;1.65;;;11.80;99.90;;;10.98;100.00;101840.53;4219484;28;20020;-74
2023/01/06 06:48:24;;;;;;;8.98;1.65;;;11.80;99.90;;;11.00;100.00;101837.75;4204452;28;20518;-74
2023/01/06 06:50:25;;;;;;;5.22;1.65;;;11.80;99.90;;;10.92;100.00;101832.31;4186414;28;20419;-74
2023/01/06 06:52:26;;;;;;;7.22;1.77;;;11.80;99.90;;;10.95;100.00;101838.16;4203984;28;20052;-74
2023/01/06 06:54:27;;;;;;;2.10;1.27;;;11.80;99.90;;;10.93;100.00;101840.06;4169951;28;20524;-74
2023/01/06 06:56:28;;;;;;;7.55;1.42;;;11.80;99.90;;;10.97;100.00;101841.50;4204044;28;20033;-74
2023/01/06 06:58:29;;;;;;;10.82;2.15;;;11.80;99.90;;;10.96;100.00;101839.81;4204184;28;20492;-74
2023/01/06 07:00:30;;;;;;;5.68;1.00;;;11.80;99.90;;;10.93;100.00;101837.44;4204056;28;20036;-74
2023/01/06 07:02:31;;;;;;;4.63;1.33;;;11.80;99.90;;;11.04;100.00;101847.94;4186421;28;20029;-74
2023/01/06 07:04:32;;;;;;;6.75;1.98;;;11.80;99.90;;;10.96;100.00;101839.81;4204020;28;20020;-74
2023/01/06 07:06:33;;;;;;;8.38;2.13;;;11.80;99.90;;;11.00;100.00;101843.03;4186308;28;20052;-74
2023/01/06 07:08:34;;;;;;;8.65;2.20;;;11.80;99.90;;;10.99;100.00;101844.81;4186325;28;20040;-74
2023/01/06 07:10:35;;;;;;;8.25;1.75;;;11.80;99.90;;;10.97;100.00;101845.94;4186468;28;20507;-74
2023/01/06 07:12:36;;;;;;;6.22;1.73;;;11.80;99.90;;;10.96;100.00;101841.63;4203822;28;20024;-74
2023/01/06 07:14:37;;;;;;;8.10;1.83;;;11.80;99.90;;;10.99;100.00;101842.19;4186043;28;20039;-74
2023/01/06 07:16:38;;;;;;;5.50;1.38;;;11.80;99.90;;;10.98;100.00;101845.81;4186099;28;20021;-74
2023/01/06 07:18:39;;;;;;;4.13;1.65;;;11.80;99.90;;;10.97;100.00;101846.78;4186356;28;20024;-74
2023/01/06 07:20:40;;;;;;;8.25;1.70;;;11.80;99.90;;;11.01;100.00;101845.56;4186164;28;20104;-74
2023/01/06 07:22:41;;;;;;;5.32;1.55;;;11.80;99.90;;;11.03;100.00;101854.16;4169414;28;20456;-74
2023/01/06 07:24:42;;;;;;;6.95;1.38;;;11.80;99.90;;;11.06;100.00;101855.69;4202405;28;20070;-74
2023/01/06 07:26:43;;;;;;;7.68;1.55;;;11.90;99.90;;;11.02;100.00;101849.84;4203620;28;20483;-74
2023/01/06 07:28:44;;;;;;;6.78;1.60;;;11.80;99.90;;;11.02;100.00;101847.19;4185939;28;20049;-74
2023/01/06 07:30:45;;;;;;;5.88;1.40;;;11.90;99.90;;;10.99;100.00;101844.81;4185906;28;20068;-74
2023/01/06 07:32:46;;;;;;;4.60;1.35;;;11.80;99.90;;;11.00;100.00;101846.50;4169323;28;20033;-74
2023/01/06 07:34:46;;;;;;;10.63;1.98;;;11.80;99.90;;;11.01;100.00;101853.47;4203615;28;20032;-74
2023/01/06 07:36:47;;;;;;;8.43;2.03;;;11.80;99.90;;;10.96;100.00;101845.09;4185456;28;20066;-74
2023/01/06 07:38:48;;;;;;;6.70;1.63;;;11.80;99.90;;;10.94;100.00;101841.75;4203600;28;20514;-75
2023/01/06 07:40:50;;;;;;;9.27;2.40;;;11.80;99.90;;;11.01;100.00;101848.19;4185698;28;20048;-74
2023/01/06 07:42:51;;;;;;;6.45;2.22;;;11.80;99.90;;;11.01;100.00;101850.84;4185055;28;20025;-74
2023/01/06 07:44:52;;;;;;;6.60;1.80;;;11.80;99.90;;;10.99;100.00;101844.81;4169115;28;20048;-74
2023/01/06 07:46:53;;;;;;;7.35;1.85;;;11.80;99.90;;;10.96;100.00;101847.72;4203470;28;20025;-73
2023/01/06 07:48:54;;;;;;;8.93;2.42;;;11.80;99.90;;;10.92;100.00;101841.06;4185563;28;20017;-74
2023/01/06 07:50:57;;;;;;;4.97;1.30;;;11.80;99.90;;;10.92;100.00;101850.78;4185474;28;20048;-73
2023/01/06 07:53:00;;;;;;;4.63;1.40;;;11.80;99.90;;;10.90;100.00;101855.38;4203183;28;20129;-74
2023/01/06 07:55:02;;;;;;;4.95;1.70;;;11.70;99.90;;;10.92;100.00;101848.13;4185612;28;20277;-74
2023/01/06 07:57:03;;;;;;;7.47;1.42;;;11.80;99.90;;;10.91;100.00;101859.66;4185090;28;20056;-74
2023/01/06 07:59:04;;;;;;;7.28;1.40;;;11.80;99.90;;;10.92;100.00;101862.19;4203054;28;20024;-74
2023/01/06 08:01:07;;;;;;;12.38;2.67;;;11.70;99.90;;;10.93;100.00;101858.56;4203404;28;20024;-73
2023/01/06 08:03:10;;;;;;;6.70;1.80;;;11.70;99.90;;;11.02;100.00;101875.44;4203099;28;20044;-73
2023/01/06 08:05:11;;;;;;;11.93;1.80;;;11.80;99.90;;;10.97;100.00;101864.41;4168812;28;20052;-74
2023/01/06 08:07:14;;;;;;;8.98;2.03;;;11.80;99.90;;;11.02;100.00;101870.97;4202968;28;20029;-74
2023/01/06 08:09:14;;;;;;;6.50;2.38;;;11.80;99.90;;;11.01;100.00;101868.47;4174781;28;20420;-73
2023/01/06 08:11:15;;;;;;;7.05;1.40;;;11.80;99.90;;;11.04;100.00;101879.63;4202910;28;20035;-74
2023/01/06 08:13:16;;;;;;;7.68;1.40;;;11.80;99.90;;;11.06;100.00;101874.19;4203011;28;20067;-74
2023/01/06 08:15:17;;;;;;;6.43;1.70;;;11.90;99.90;;;11.12;100.00;101873.66;4185058;28;20084;-73
2023/01/06 08:17:18;;;;;;;9.07;2.03;;;11.90;99.90;;;11.09;100.00;101872.13;4202982;28;20039;-73
2023/01/06 08:19:19;;;;;;;8.07;1.90;;;11.90;99.90;;;11.12;100.00;101873.66;4202954;28;20039;-73
2023/01/06 08:21:20;;;;;;;8.50;1.60;;;11.90;99.90;;;11.13;100.00;101877.97;4193284;28;20476;-73
2023/01/06 08:23:20;;;;;;;6.82;1.98;;;11.90;99.90;;;11.17;100.00;101870.63;4205001;28;20022;-73
2023/01/06 08:25:21;;;;;;;9.48;2.28;;;11.90;99.90;;;11.17;100.00;101873.28;4202819;28;20472;-73
2023/01/06 08:27:23;;;;;;;6.72;1.02;;;12.00;99.90;;;11.18;100.00;101870.50;4202610;28;20020;-73
2023/01/06 08:29:24;;;;;;;7.60;1.60;;;12.00;99.90;;;11.21;100.00;101869.38;4185008;28;20028;-73
2023/01/06 08:31:25;;;;;;;3.25;1.05;;;12.00;99.90;;;11.25;100.00;101870.81;4202598;28;20074;-73
2023/01/06 08:33:27;;;;;;;3.85;1.00;;;12.00;99.90;;;11.28;100.00;101867.91;4185138;28;20029;-73
2023/01/06 08:35:28;;;;;;;5.32;1.20;;;12.00;99.90;;;11.26;100.00;101859.28;4184818;28;20027;-73
2023/01/06 08:37:29;;;;;;;4.60;1.00;;;12.10;99.90;;;11.26;100.00;101861.91;4209080;28;20028;-73
2023/01/06 08:39:30;;;;;;;4.35;0.98;;;12.00;99.90;;;11.26;100.00;101859.28;4184749;28;20025;-73
2023/01/06 08:41:31;;;;;;;4.65;1.13;;;12.10;99.90;;;11.28;100.00;101860.81;4202417;28;20024;-72